FCH weather

Fresno Chandler Executive Airport
Fresno, California, United States

Public forecast

Using degrees Fahrenheit for public forecast. Weather courtesy of forecast.io.

METAR (pilot weather report)

Retrieved 2019/09/23 16:35 UTC (0 seconds ago):

KFCH 231635Z AUTO 32008KT 10SM CLR 22/12 A2995 RMK A01

TAF (pilot weather forecast)

Closest forecast is Fresno Yosemite International Airport, 5.6 nm (10.3 km) ENE. Retrieved 2019/09/23 12:22 UTC (4 hours ago):

TAF KFAT 231120Z 2312/2412 VRB04KT P6SM SCT200 FM232000 30007KT P6SM SKC